Time;durP1;ratioP1;P1;durP2;ratioP2;P2;SDS_P1;SDS_P2;PMS_P1;PMS_P2;Temp;Humidity;BMP_temperature;BMP_pressure;BME280_temperature;BME280_humidity;BME280_pressure;Samples;Min_cycle;Max_cycle;Signal;HPM_P1;HPM_P2
2022/08/28 00:01:20;;;;;;;3.10;2.70;;;20.60;99.90;;;;;;6289616;28;20299;-68
2022/08/28 00:04:26;;;;;;;3.17;2.97;;;20.50;99.90;;;;;;6289313;28;20299;-68
2022/08/28 00:07:31;;;;;;;3.15;2.92;;;20.60;99.90;;;;;;6289911;28;20267;-68
2022/08/28 00:10:38;;;;;;;2.90;2.70;;;20.50;99.90;;;;;;6289191;28;20311;-68
2022/08/28 00:13:46;;;;;;;3.83;2.80;;;20.50;99.90;;;;;;6264385;28;20299;-68
2022/08/28 00:16:51;;;;;;;2.65;2.63;;;20.50;99.90;;;;;;6264483;28;20272;-68
2022/08/28 00:19:56;;;;;;;2.30;2.30;;;20.50;99.90;;;;;;6264105;28;20296;-68
2022/08/28 00:23:03;;;;;;;2.90;2.78;;;20.50;99.90;;;;;;6264201;28;20271;-68
2022/08/28 00:27:51;;;;;;;2.70;2.60;;;20.50;99.90;;;;;;6262401;28;20304;-67
2022/08/28 00:29:40;;;;;;;2.72;2.63;;;20.40;99.90;;;;;;6263585;28;20304;-67
2022/08/28 00:32:45;;;;;;;2.88;2.70;;;20.50;99.90;;;;;;6263822;28;20275;-67
2022/08/28 00:35:51;;;;;;;2.53;2.42;;;20.40;99.90;;;;;;6262529;28;20296;-67
2022/08/28 00:38:58;;;;;;;2.63;2.53;;;20.40;99.90;;;;;;6263565;28;20300;-67
2022/08/28 00:42:04;;;;;;;2.92;2.83;;;20.30;99.90;;;;;;6263758;28;20291;-68
2022/08/28 00:45:14;;;;;;;3.03;2.63;;;20.30;99.90;;;;;;6263180;28;20291;-68
2022/08/28 00:48:20;;;;;;;2.58;2.50;;;20.40;99.90;;;;;;6262790;28;20268;-68
2022/08/28 00:55:09;;;;;;;2.67;2.58;;;20.30;99.90;;;;;;6187454;28;20293;-68
2022/08/28 00:58:14;;;;;;;2.90;2.80;;;20.30;99.90;;;;;;6187337;28;20274;-68
2022/08/28 01:01:21;;;;;;;2.72;2.55;;;20.30;99.90;;;;;;6263131;28;20481;-68
2022/08/28 01:04:31;;;;;;;2.42;2.42;;;20.30;99.90;;;;;;6278501;28;20295;-68
2022/08/28 01:07:38;;;;;;;2.90;2.67;;;20.30;99.90;;;;;;6287678;28;20583;-68
2022/08/28 01:10:48;;;;;;;2.88;2.75;;;20.20;99.90;;;;;;6288424;28;20295;-68
2022/08/28 01:13:55;;;;;;;2.30;2.17;;;20.20;99.90;;;;;;6312446;28;20294;-68
2022/08/28 01:17:08;;;;;;;2.72;2.45;;;20.10;99.90;;;;;;6312792;28;20402;-68
2022/08/28 01:20:19;;;;;;;2.58;2.58;;;20.10;99.90;;;;;;6312620;28;20293;-67
2022/08/28 01:23:45;;;;;;;2.15;2.00;;;20.10;99.90;;;;;;6311807;28;20286;-68
2022/08/28 01:26:51;;;;;;;2.20;2.20;;;20.10;99.90;;;;;;6313071;28;20278;-68
2022/08/28 01:29:57;;;;;;;2.13;2.03;;;20.10;99.90;;;;;;6312484;28;20294;-68
2022/08/28 01:33:03;;;;;;;2.22;2.20;;;20.00;99.90;;;;;;6312358;28;20274;-68
2022/08/28 01:36:11;;;;;;;2.25;2.25;;;19.90;99.90;;;;;;6312145;28;20295;-68
2022/08/28 01:39:23;;;;;;;2.10;2.10;;;20.00;99.90;;;;;;6312105;28;20294;-68
2022/08/28 01:42:29;;;;;;;2.05;2.05;;;20.00;99.90;;;;;;6312429;28;20603;-69
2022/08/28 01:45:36;;;;;;;2.20;2.15;;;19.90;99.90;;;;;;6311897;28;20299;-68
2022/08/28 01:48:43;;;;;;;2.10;2.00;;;19.90;99.90;;;;;;6311882;28;20294;-68
2022/08/28 01:51:49;;;;;;;2.10;2.10;;;19.80;99.90;;;;;;6312333;28;20282;-68
2022/08/28 01:54:57;;;;;;;2.13;2.10;;;19.80;99.90;;;;;;6311456;28;20294;-67
2022/08/28 01:58:07;;;;;;;2.20;2.10;;;19.70;99.90;;;;;;6312158;28;20350;-68
2022/08/28 02:01:15;;;;;;;1.98;1.90;;;19.80;99.90;;;;;;6311417;28;20295;-68
2022/08/28 02:04:21;;;;;;;1.60;1.50;;;19.70;99.90;;;;;;6311128;28;20294;-68
2022/08/28 02:07:37;;;;;;;1.40;1.40;;;19.60;99.90;;;;;;6312009;28;20267;-68
2022/08/28 02:10:45;;;;;;;1.52;1.48;;;19.60;99.90;;;;;;6311363;28;20476;-68
2022/08/28 02:13:52;;;;;;;1.60;1.60;;;19.70;99.90;;;;;;6311129;28;20488;-68
2022/08/28 02:17:00;;;;;;;1.20;1.20;;;19.70;99.90;;;;;;6311250;28;20270;-68
2022/08/28 02:20:07;;;;;;;1.30;1.30;;;19.60;99.90;;;;;;6310198;28;20299;-68
2022/08/28 02:23:15;;;;;;;2.05;1.40;;;19.60;99.90;;;;;;6310963;28;20291;-68
2022/08/28 02:26:22;;;;;;;1.55;1.55;;;19.50;99.90;;;;;;6311455;28;20408;-68
2022/08/28 02:29:28;;;;;;;3.30;1.30;;;19.60;99.90;;;;;;6310802;28;20290;-68
2022/08/28 02:32:33;;;;;;;1.25;1.25;;;19.50;99.90;;;;;;6311469;28;20274;-67
2022/08/28 02:35:40;;;;;;;1.52;1.52;;;19.50;99.90;;;;;;6310765;28;20299;-67
2022/08/28 02:38:46;;;;;;;1.30;1.30;;;19.40;99.90;;;;;;6310678;28;20294;-68
2022/08/28 02:41:52;;;;;;;1.30;1.30;;;19.40;99.90;;;;;;6310697;28;20280;-67
2022/08/28 02:44:58;;;;;;;1.50;1.50;;;19.30;99.90;;;;;;6310293;28;20294;-67
2022/08/28 02:48:04;;;;;;;1.45;1.45;;;19.30;99.90;;;;;;6310722;28;20270;-67
2022/08/28 02:51:21;;;;;;;1.58;1.58;;;19.30;99.90;;;;;;6310252;28;20279;-67
2022/08/28 02:54:27;;;;;;;1.40;1.40;;;19.30;99.90;;;;;;6310310;28;20298;-67
2022/08/28 02:57:34;;;;;;;2.15;1.50;;;19.30;99.90;;;;;;6310402;28;20457;-67
2022/08/28 03:00:40;;;;;;;3.90;1.88;;;19.20;99.90;;;;;;6310017;28;20303;-67
2022/08/28 03:03:46;;;;;;;1.52;1.52;;;19.10;99.90;;;;;;6301114;28;20454;-67
2022/08/28 03:06:51;;;;;;;2.63;1.67;;;19.20;99.90;;;;;;6284725;28;20571;-67
2022/08/28 03:09:56;;;;;;;1.90;1.83;;;19.10;99.90;;;;;;6284850;28;20295;-67
2022/08/28 03:13:04;;;;;;;2.40;1.90;;;19.10;99.90;;;;;;6284704;28;20332;-67
2022/08/28 03:16:11;;;;;;;1.77;1.67;;;19.10;99.90;;;;;;6285469;28;20433;-67
2022/08/28 03:19:17;;;;;;;2.03;1.80;;;19.10;99.90;;;;;;6284861;28;20461;-67
2022/08/28 03:23:24;;;;;;;1.80;1.80;;;19.10;99.90;;;;;;6284958;28;20610;-67
2022/08/28 03:25:50;;;;;;;2.08;1.98;;;19.10;99.90;;;;;;6284964;28;20271;-68
2022/08/28 03:28:58;;;;;;;2.50;2.30;;;19.10;99.90;;;;;;6284894;28;20295;-68
2022/08/28 03:32:05;;;;;;;2.45;2.30;;;19.10;99.90;;;;;;6289120;28;20270;-68
2022/08/28 03:35:11;;;;;;;2.50;2.47;;;19.00;99.90;;;;;;6290159;28;20291;-68
2022/08/28 03:38:17;;;;;;;2.63;2.53;;;19.00;99.90;;;;;;6289334;28;20477;-68
2022/08/28 03:41:27;;;;;;;3.85;2.35;;;19.00;99.90;;;;;;6290334;28;20543;-67
2022/08/28 03:44:35;;;;;;;2.70;2.25;;;19.00;99.90;;;;;;6289272;28;20303;-68
2022/08/28 03:47:42;;;;;;;3.83;2.35;;;19.00;99.90;;;;;;6271605;28;20311;-67
2022/08/28 03:50:47;;;;;;;2.53;2.10;;;19.00;99.90;;;;;;6290069;28;20270;-68
2022/08/28 03:53:53;;;;;;;6.45;2.05;;;19.00;99.90;;;;;;6289458;28;20294;-68
2022/08/28 03:56:59;;;;;;;4.18;2.20;;;19.00;99.90;;;;;;6288926;28;20266;-68
2022/08/28 04:00:09;;;;;;;6.53;2.20;;;19.00;99.90;;;;;;6290178;28;20316;-67
2022/08/28 04:03:18;;;;;;;4.78;2.05;;;19.00;99.90;;;;;;6293100;28;20302;-67
2022/08/28 04:06:24;;;;;;;4.05;2.10;;;19.00;99.90;;;;;;6314560;28;20561;-68
2022/08/28 04:09:29;;;;;;;2.08;1.90;;;19.10;99.90;;;;;;6314007;28;20294;-68
2022/08/28 04:12:35;;;;;;;4.47;2.20;;;19.00;99.90;;;;;;6314179;28;20282;-68
2022/08/28 04:15:43;;;;;;;8.00;2.63;;;19.00;99.90;;;;;;6314343;28;20316;-68
2022/08/28 04:18:50;;;;;;;5.40;2.10;;;19.10;99.90;;;;;;6314055;28;20294;-68
2022/08/28 04:21:55;;;;;;;6.72;2.65;;;19.00;99.90;;;;;;6314220;28;20270;-68
2022/08/28 04:25:01;;;;;;;4.13;2.10;;;19.00;99.90;;;;;;6313193;28;20294;-68
2022/08/28 04:28:06;;;;;;;3.83;2.28;;;19.00;99.90;;;;;;6313894;28;20432;-69
2022/08/28 04:31:14;;;;;;;6.40;2.05;;;19.00;99.90;;;;;;6314293;28;20423;-68
2022/08/28 04:34:19;;;;;;;6.95;2.42;;;19.00;99.90;;;;;;6313635;28;20477;-67
2022/08/28 04:37:25;;;;;;;4.63;2.30;;;19.00;99.90;;;;;;6313364;28;20290;-68
2022/08/28 04:40:32;;;;;;;4.88;2.25;;;19.10;99.90;;;;;;6314039;28;20274;-67
2022/08/28 04:43:37;;;;;;;4.85;2.40;;;19.00;99.90;;;;;;6312704;28;20301;-66
2022/08/28 04:46:44;;;;;;;6.53;2.50;;;19.00;99.90;;;;;;6313655;28;20274;-67
2022/08/28 04:49:53;;;;;;;8.80;2.60;;;19.10;99.90;;;;;;6313336;28;20294;-68
2022/08/28 04:52:58;;;;;;;7.32;2.58;;;19.20;99.90;;;;;;6312705;28;20294;-68
2022/08/28 04:56:07;;;;;;;2.67;2.10;;;19.20;99.90;;;;;;6313863;28;20460;-68
2022/08/28 04:59:13;;;;;;;4.20;2.30;;;19.20;99.90;;;;;;6313266;28;20602;-68
2022/08/28 05:02:20;;;;;;;3.30;2.35;;;19.30;99.90;;;;;;6312921;28;20286;-68
2022/08/28 05:05:25;;;;;;;6.97;2.40;;;19.30;99.90;;;;;;6291277;28;20299;-68
2022/08/28 05:08:31;;;;;;;6.43;2.05;;;19.30;99.90;;;;;;6287574;28;20295;-68
2022/08/28 05:11:36;;;;;;;4.15;2.58;;;19.40;99.90;;;;;;6288389;28;20264;-67
2022/08/28 05:14:42;;;;;;;4.07;2.20;;;19.50;99.90;;;;;;6287750;28;20311;-69
2022/08/28 05:17:49;;;;;;;3.90;2.20;;;19.40;99.90;;;;;;6287639;28;20299;-67
2022/08/28 05:20:54;;;;;;;4.38;1.98;;;19.30;99.90;;;;;;6287968;28;20271;-67
2022/08/28 05:23:59;;;;;;;4.80;2.45;;;19.40;99.90;;;;;;6287257;28;20290;-67
2022/08/28 05:27:05;;;;;;;4.88;2.10;;;19.40;99.90;;;;;;6286901;28;20275;-68
2022/08/28 05:30:13;;;;;;;4.55;2.30;;;19.30;99.90;;;;;;6287503;28;20267;-67
2022/08/28 05:33:20;;;;;;;3.42;2.15;;;19.30;99.90;;;;;;6287149;28;20452;-68
2022/08/28 05:36:28;;;;;;;4.13;2.42;;;19.30;99.90;;;;;;6287552;28;20271;-68
2022/08/28 05:39:37;;;;;;;4.15;2.30;;;19.40;99.90;;;;;;6286384;28;20300;-68
2022/08/28 05:42:43;;;;;;;7.68;2.50;;;19.30;99.90;;;;;;6286777;28;20294;-68
2022/08/28 05:45:58;;;;;;;3.40;2.10;;;19.30;99.90;;;;;;6286989;28;20291;-68
2022/08/28 05:49:06;;;;;;;4.18;2.45;;;19.40;99.90;;;;;;6286850;28;20305;-68
2022/08/28 05:52:15;;;;;;;4.75;1.73;;;19.50;99.90;;;;;;6286725;28;20267;-68
2022/08/28 05:55:20;;;;;;;4.28;2.30;;;19.50;99.90;;;;;;6285698;28;20275;-67
2022/08/28 05:58:30;;;;;;;4.53;2.15;;;19.60;99.90;;;;;;6286645;28;20294;-68
2022/08/28 06:01:38;;;;;;;5.97;2.42;;;19.60;99.90;;;;;;6286650;28;20456;-67
2022/08/28 06:04:47;;;;;;;5.82;2.38;;;19.60;99.90;;;;;;6285626;28;20366;-67
2022/08/28 06:07:53;;;;;;;3.58;2.08;;;19.70;99.90;;;;;;6285605;28;20294;-67
2022/08/28 06:10:59;;;;;;;9.32;2.63;;;19.60;99.90;;;;;;6286133;28;20563;-67
2022/08/28 06:14:09;;;;;;;2.42;2.13;;;19.70;99.90;;;;;;6285964;28;20434;-67
2022/08/28 06:17:15;;;;;;;3.08;2.17;;;19.70;99.90;;;;;;6285758;28;20469;-67
2022/08/28 06:20:29;;;;;;;5.75;2.28;;;19.70;99.90;;;;;;6286037;28;20465;-67
2022/08/28 06:23:35;;;;;;;1.85;1.67;;;19.80;99.90;;;;;;6285773;28;20295;-68
2022/08/28 06:26:40;;;;;;;2.70;1.90;;;19.80;99.90;;;;;;6286415;28;20578;-68
2022/08/28 06:29:46;;;;;;;5.28;2.00;;;19.80;99.90;;;;;;6285958;28;20314;-68
2022/08/28 06:32:51;;;;;;;3.33;2.03;;;19.80;99.90;;;;;;6285457;28;20299;-68
2022/08/28 06:35:58;;;;;;;2.60;2.15;;;19.80;99.90;;;;;;6286466;28;20275;-68
2022/08/28 06:39:05;;;;;;;3.30;2.10;;;19.90;99.90;;;;;;6285327;28;20299;-68
2022/08/28 06:42:11;;;;;;;5.57;1.80;;;19.90;99.90;;;;;;6284975;28;20267;-68
2022/08/28 06:45:17;;;;;;;2.80;1.50;;;19.90;99.90;;;;;;6285857;28;20271;-68
2022/08/28 06:48:26;;;;;;;4.20;1.85;;;19.90;99.90;;;;;;6277250;28;20303;-68
2022/08/28 06:51:33;;;;;;;3.65;1.80;;;19.80;99.90;;;;;;6285445;28;20267;-68
2022/08/28 06:54:39;;;;;;;4.10;1.90;;;19.80;99.90;;;;;;6285107;28;20299;-68
2022/08/28 06:57:59;;;;;;;2.03;1.80;;;19.90;99.90;;;;;;6285380;28;20299;-68
2022/08/28 07:01:09;;;;;;;3.92;1.90;;;20.00;99.90;;;;;;6285876;28;20270;-68
2022/08/28 07:04:16;;;;;;;3.20;1.88;;;20.00;99.90;;;;;;6284844;28;20311;-68
2022/08/28 07:07:23;;;;;;;1.95;1.70;;;20.00;99.90;;;;;;6284858;28;20302;-68
2022/08/28 07:10:36;;;;;;;6.78;1.80;;;20.00;99.90;;;;;;6285694;28;20259;-68
2022/08/28 07:13:43;;;;;;;1.60;1.50;;;19.90;99.90;;;;;;6284680;28;20294;-68
2022/08/28 07:16:48;;;;;;;2.75;1.75;;;19.90;99.90;;;;;;6285464;28;20271;-68
2022/08/28 07:19:56;;;;;;;1.67;1.67;;;20.00;99.90;;;;;;6284727;28;20299;-68
2022/08/28 07:23:02;;;;;;;2.10;1.77;;;20.10;99.90;;;;;;6284741;28;20294;-68
2022/08/28 07:26:12;;;;;;;3.28;2.05;;;20.10;99.90;;;;;;6285590;28;20291;-68
2022/08/28 07:29:17;;;;;;;3.25;2.03;;;20.10;99.90;;;;;;6284747;28;20299;-68
2022/08/28 07:32:24;;;;;;;2.00;1.80;;;20.10;99.90;;;;;;6284590;28;20456;-68
2022/08/28 07:35:29;;;;;;;2.20;1.83;;;20.20;99.90;;;;;;6285073;28;20275;-67
2022/08/28 07:38:36;;;;;;;2.00;1.73;;;20.20;99.90;;;;;;6284706;28;20291;-67
2022/08/28 07:41:42;;;;;;;1.83;1.70;;;20.30;99.90;;;;;;6284766;28;20271;-68
2022/08/28 07:44:49;;;;;;;1.80;1.70;;;20.30;99.90;;;;;;6284544;28;20299;-68
2022/08/28 07:47:55;;;;;;;4.07;2.00;;;20.40;99.90;;;;;;6283928;28;20302;-68
2022/08/28 07:51:00;;;;;;;1.60;1.55;;;20.40;99.90;;;;;;6285159;28;20271;-67
2022/08/28 07:54:08;;;;;;;3.05;1.95;;;20.30;99.90;;;;;;6284472;28;20299;-68
2022/08/28 07:57:20;;;;;;;3.85;1.85;;;20.30;99.90;;;;;;6284576;28;20311;-67
2022/08/28 08:00:26;;;;;;;1.83;1.50;;;20.10;99.90;;;;;;6284364;28;20303;-67
2022/08/28 08:03:32;;;;;;;2.97;2.17;;;20.10;99.90;;;;;;6283694;28;20413;-67
2022/08/28 08:06:39;;;;;;;2.00;1.90;;;20.10;99.90;;;;;;6284571;28;20296;-68
2022/08/28 08:09:46;;;;;;;2.38;2.08;;;20.20;99.90;;;;;;6283861;28;20294;-67
2022/08/28 08:12:54;;;;;;;3.03;1.85;;;20.20;99.90;;;;;;6283868;28;20295;-69
2022/08/28 08:16:05;;;;;;;1.90;1.80;;;20.30;99.90;;;;;;6284516;28;20267;-68
2022/08/28 08:19:13;;;;;;;2.67;1.80;;;20.30;99.90;;;;;;6288133;28;20312;-68
2022/08/28 08:22:19;;;;;;;4.93;2.00;;;20.30;99.90;;;;;;6288764;28;20578;-67
2022/08/28 08:25:26;;;;;;;6.80;2.13;;;20.30;99.90;;;;;;6288957;28;20275;-67
2022/08/28 08:28:36;;;;;;;2.33;2.00;;;20.20;99.90;;;;;;6287828;28;20299;-67
2022/08/28 08:31:41;;;;;;;4.00;2.00;;;20.30;99.90;;;;;;6288554;28;20263;-68
2022/08/28 08:34:48;;;;;;;2.20;2.00;;;20.30;99.90;;;;;;6288432;28;20590;-67
2022/08/28 08:37:53;;;;;;;3.15;1.77;;;20.30;99.90;;;;;;6288052;28;20299;-68
2022/08/28 08:41:05;;;;;;;3.75;2.42;;;20.30;99.90;;;;;;6288912;28;20275;-67
2022/08/28 08:44:26;;;;;;;4.90;2.08;;;20.10;99.90;;;;;;6286722;28;20294;-67
2022/08/28 08:47:43;;;;;;;2.58;1.95;;;20.20;99.90;;;;;;6287721;28;20488;-68
2022/08/28 08:50:49;;;;;;;1.90;1.80;;;20.20;99.90;;;;;;6288313;28;20586;-68
2022/08/28 08:54:01;;;;;;;5.43;1.70;;;20.20;99.90;;;;;;6287980;28;20311;-67
2022/08/28 08:57:10;;;;;;;1.95;1.50;;;20.10;99.90;;;;;;6287942;28;20456;-68
2022/08/28 09:00:17;;;;;;;15.50;1.80;;;20.10;99.90;;;;;;6287879;28;20267;-67
2022/08/28 09:03:26;;;;;;;1.83;1.65;;;20.10;99.90;;;;;;6287237;28;20339;-67
2022/08/28 09:06:42;;;;;;;1.40;1.30;;;20.20;99.90;;;;;;6288080;28;20275;-67
2022/08/28 09:09:51;;;;;;;2.40;1.77;;;20.30;99.90;;;;;;6287663;28;20300;-68
2022/08/28 09:13:12;;;;;;;1.67;1.58;;;20.20;99.90;;;;;;6286911;28;20294;-67
2022/08/28 09:16:26;;;;;;;1.90;1.80;;;20.30;99.90;;;;;;6288049;28;20268;-68
2022/08/28 09:19:32;;;;;;;3.95;1.70;;;20.20;99.90;;;;;;6287276;28;20295;-68
2022/08/28 09:22:40;;;;;;;2.22;2.00;;;20.00;99.90;;;;;;6287110;28;20295;-68
2022/08/28 09:25:52;;;;;;;2.15;1.80;;;20.00;99.90;;;;;;6287818;28;20266;-69
2022/08/28 09:29:05;;;;;;;5.55;2.10;;;19.80;99.90;;;;;;6286850;28;20299;-68
2022/08/28 09:32:21;;;;;;;3.88;1.90;;;19.80;99.90;;;;;;6286983;28;20431;-69
2022/08/28 09:35:29;;;;;;;1.67;1.50;;;19.80;99.90;;;;;;6287463;28;20538;-69
2022/08/28 09:38:35;;;;;;;5.10;3.17;;;19.80;99.90;;;;;;6287258;28;20315;-69
2022/08/28 09:45:19;;;;;;;4.75;4.22;;;19.80;99.90;;;;;;6286434;28;20280;-68
2022/08/28 09:48:33;;;;;;;4.07;3.50;;;19.80;99.90;;;;;;6286499;28;20319;-68
2022/08/28 09:51:38;;;;;;;2.50;2.40;;;19.80;99.90;;;;;;6287236;28;20267;-68
2022/08/28 09:54:45;;;;;;;4.53;4.10;;;19.80;99.90;;;;;;6286614;28;20299;-69
2022/08/28 09:57:51;;;;;;;3.92;2.13;;;19.80;99.90;;;;;;6286530;28;20291;-68
2022/08/28 10:01:09;;;;;;;3.55;2.78;;;19.60;99.90;;;;;;6268816;28;20453;-69
2022/08/28 10:04:46;;;;;;;2.78;2.40;;;19.60;99.90;;;;;;6285813;28;20303;-69
2022/08/28 10:07:55;;;;;;;2.67;1.60;;;19.50;99.90;;;;;;6285965;28;20456;-69
2022/08/28 10:11:10;;;;;;;2.35;1.60;;;19.50;99.90;;;;;;6286138;28;20263;-68
2022/08/28 10:14:42;;;;;;;1.70;1.60;;;19.50;99.90;;;;;;6285525;28;20303;-68
2022/08/28 10:18:10;;;;;;;1.90;1.73;;;19.50;99.90;;;;;;6284256;28;20478;-68
2022/08/28 10:21:23;;;;;;;2.90;1.60;;;19.40;99.90;;;;;;6286492;28;20270;-68
2022/08/28 10:24:47;;;;;;;1.50;1.40;;;19.30;99.90;;;;;;6285522;28;20299;-69
2022/08/28 10:28:21;;;;;;;5.53;1.48;;;19.40;99.90;;;;;;6285412;28;20555;-67
2022/08/28 10:31:35;;;;;;;1.60;1.60;;;19.50;99.90;;;;;;6285866;28;20295;-67
2022/08/28 10:34:53;;;;;;;4.30;1.80;;;19.40;99.90;;;;;;6285581;28;20544;-67
2022/08/28 10:38:07;;;;;;;3.47;1.95;;;19.30;99.90;;;;;;6285046;28;20291;-67
2022/08/28 10:41:18;;;;;;;4.28;1.70;;;19.30;99.90;;;;;;6285307;28;20272;-69
2022/08/28 10:44:30;;;;;;;3.50;1.80;;;19.20;99.90;;;;;;6285309;28;20598;-68
2022/08/28 10:47:40;;;;;;;2.90;1.40;;;19.20;99.90;;;;;;6284784;28;20286;-69
2022/08/28 10:50:50;;;;;;;3.45;2.10;;;19.20;99.90;;;;;;6285440;28;20456;-69
2022/08/28 10:54:02;;;;;;;2.13;1.92;;;19.20;99.90;;;;;;6285013;28;20299;-69
2022/08/28 10:57:19;;;;;;;3.78;1.75;;;19.10;99.90;;;;;;6284811;28;20279;-67
2022/08/28 11:00:27;;;;;;;1.77;1.63;;;19.10;99.90;;;;;;6284711;28;20272;-68
2022/08/28 11:03:45;;;;;;;2.80;1.27;;;19.20;99.90;;;;;;6284447;28;20295;-68
2022/08/28 11:06:55;;;;;;;3.28;1.70;;;19.20;99.90;;;;;;6285011;28;20271;-68
2022/08/28 11:10:18;;;;;;;1.73;1.63;;;19.30;99.90;;;;;;6279486;28;20291;-68
2022/08/28 11:13:49;;;;;;;1.50;1.35;;;19.20;99.90;;;;;;6276330;28;20295;-68
2022/08/28 11:16:58;;;;;;;3.90;1.30;;;19.20;99.90;;;;;;6284139;28;20271;-68
2022/08/28 11:20:14;;;;;;;1.67;1.50;;;19.20;99.90;;;;;;6284069;28;20279;-68
2022/08/28 11:23:37;;;;;;;3.88;3.50;;;19.20;99.90;;;;;;6284877;28;20602;-68
2022/08/28 11:27:04;;;;;;;2.45;1.70;;;19.10;99.90;;;;;;6284703;28;20275;-68
2022/08/28 11:30:33;;;;;;;4.55;1.90;;;19.00;99.90;;;;;;6284329;28;20302;-68
2022/08/28 11:33:41;;;;;;;2.60;1.63;;;19.00;99.90;;;;;;6284498;28;20318;-68
2022/08/28 11:37:01;;;;;;;2.08;1.38;;;19.00;99.90;;;;;;6285638;28;20266;-69
2022/08/28 11:40:56;;;;;;;3.85;1.85;;;19.00;99.90;;;;;;6283964;28;20464;-69
2022/08/28 11:44:41;;;;;;;2.97;1.65;;;18.90;99.90;;;;;;6284713;28;20582;-68
2022/08/28 11:47:55;;;;;;;2.05;1.63;;;18.80;99.90;;;;;;6279192;28;20462;-69
2022/08/28 11:51:05;;;;;;;5.30;1.88;;;18.80;99.90;;;;;;6284393;28;20291;-68
2022/08/28 11:54:36;;;;;;;2.97;1.88;;;18.80;99.90;;;;;;6288797;28;20302;-68
2022/08/28 11:57:58;;;;;;;2.75;2.53;;;18.80;99.90;;;;;;6288974;28;20474;-68
2022/08/28 12:01:08;;;;;;;1.77;1.67;;;18.70;99.90;;;;;;6289637;28;20271;-68
2022/08/28 12:04:16;;;;;;;2.55;2.10;;;18.60;99.90;;;;;;6288728;28;20299;-69
2022/08/28 12:07:23;;;;;;;2.28;1.42;;;18.60;99.90;;;;;;6288683;28;20299;-68
2022/08/28 12:10:58;;;;;;;5.88;2.15;;;18.70;99.90;;;;;;6280936;28;20283;-68
2022/08/28 12:14:04;;;;;;;4.82;1.50;;;18.70;99.90;;;;;;6288677;28;20302;-68
2022/08/28 12:17:24;;;;;;;3.20;1.90;;;18.50;99.90;;;;;;6288867;28;20271;-68
2022/08/28 12:20:47;;;;;;;1.80;1.70;;;18.50;99.90;;;;;;6288282;28;20451;-68
2022/08/28 12:24:03;;;;;;;1.45;1.45;;;18.40;99.90;;;;;;6288422;28;20303;-68
2022/08/28 12:27:17;;;;;;;1.50;1.50;;;18.40;99.90;;;;;;6288334;28;20275;-68
2022/08/28 12:30:39;;;;;;;1.65;1.58;;;18.40;99.90;;;;;;6281053;28;20290;-68
2022/08/28 12:33:50;;;;;;;2.78;1.40;;;18.40;99.90;;;;;;6288079;28;20299;-69
2022/08/28 12:36:57;;;;;;;2.50;1.60;;;18.40;99.90;;;;;;6288583;28;20267;-69
2022/08/28 12:40:14;;;;;;;5.47;1.50;;;18.40;99.90;;;;;;6287481;28;20287;-67
2022/08/28 12:43:35;;;;;;;1.75;1.65;;;18.40;99.90;;;;;;6287555;28;20299;-68
2022/08/28 12:46:51;;;;;;;4.40;1.70;;;18.20;99.90;;;;;;6288657;28;20275;-68
2022/08/28 12:49:57;;;;;;;5.93;1.75;;;18.20;99.90;;;;;;6288008;28;20495;-68
2022/08/28 12:53:06;;;;;;;2.72;1.73;;;18.10;99.90;;;;;;6287702;28;20295;-68
2022/08/28 12:56:17;;;;;;;3.28;1.77;;;18.00;99.90;;;;;;6287995;28;20267;-68
2022/08/28 12:59:23;;;;;;;1.85;1.70;;;17.90;99.90;;;;;;6288156;28;20306;-68
2022/08/28 13:02:33;;;;;;;5.53;2.15;;;17.80;99.90;;;;;;6287021;28;20287;-68
2022/08/28 13:05:40;;;;;;;3.08;1.85;;;17.60;99.90;;;;;;6288288;28;20304;-68
2022/08/28 13:08:48;;;;;;;2.80;1.55;;;17.50;99.90;;;;;;6287450;28;20582;-68
2022/08/28 13:11:54;;;;;;;5.03;2.15;;;17.40;99.90;;;;;;6287614;28;20283;-68
2022/08/28 13:15:00;;;;;;;4.25;1.60;;;17.20;99.90;;;;;;6286865;28;20274;-68
2022/08/28 13:18:07;;;;;;;3.65;1.42;;;17.10;99.90;;;;;;6287636;28;20303;-67
2022/08/28 13:21:32;;;;;;;5.00;1.88;;;17.20;99.90;;;;;;6287579;28;20279;-68
2022/08/28 13:24:44;;;;;;;5.30;1.70;;;17.20;99.90;;;;;;6287246;28;20299;-69
2022/08/28 13:28:01;;;;;;;1.95;1.50;;;17.00;99.90;;;;;;6286946;28;20294;-68
2022/08/28 13:31:31;;;;;;;1.50;1.40;;;17.10;99.90;;;;;;6286452;28;20287;-68
2022/08/28 13:34:38;;;;;;;2.38;2.03;;;16.80;99.90;;;;;;6286871;28;20299;-68
2022/08/28 13:37:54;;;;;;;2.50;1.90;;;16.80;99.90;;;;;;6287035;28;20303;-68
2022/08/28 13:41:04;;;;;;;2.25;1.58;;;16.70;99.90;;;;;;6287420;28;20458;-67
2022/08/28 13:44:10;;;;;;;5.43;1.70;;;16.30;99.90;;;;;;6286703;28;20291;-67
2022/08/28 13:47:17;;;;;;;4.68;1.80;;;16.40;99.90;;;;;;6285731;28;20583;-67
2022/08/28 13:50:22;;;;;;;2.90;1.75;;;16.30;99.90;;;;;;6287423;28;20276;-68
2022/08/28 13:53:28;;;;;;;3.42;1.80;;;16.20;99.90;;;;;;6286644;28;20295;-68
2022/08/28 13:56:36;;;;;;;2.13;1.27;;;16.10;99.90;;;;;;6286892;28;20446;-67
2022/08/28 13:59:41;;;;;;;3.15;1.55;;;16.00;99.90;;;;;;6286346;28;20291;-67
2022/08/28 14:06:15;;;;;;;5.32;1.60;;;15.80;99.90;;;;;;6286907;28;20271;-68
2022/08/28 14:09:21;;;;;;;2.08;1.25;;;15.60;99.90;;;;;;6286040;28;20300;-67
2022/08/28 14:12:28;;;;;;;2.30;1.58;;;15.70;99.90;;;;;;6285754;28;20487;-68
2022/08/28 14:15:37;;;;;;;2.35;1.63;;;15.70;99.90;;;;;;6285794;28;20271;-68
2022/08/28 14:18:44;;;;;;;1.50;1.17;;;15.70;99.90;;;;;;6286120;28;20295;-68
2022/08/28 14:21:50;;;;;;;1.23;1.00;;;15.50;99.90;;;;;;6286184;28;20274;-68
2022/08/28 14:24:56;;;;;;;2.58;1.20;;;15.60;99.90;;;;;;6286042;28;20300;-68
2022/08/28 14:28:02;;;;;;;3.05;1.20;;;15.60;99.90;;;;;;6285763;28;20299;-68
2022/08/28 14:31:07;;;;;;;1.23;1.13;;;15.60;99.90;;;;;;6285947;28;20275;-68
2022/08/28 14:34:22;;;;;;;1.65;1.02;;;15.60;99.90;;;;;;6286042;28;20307;-68
2022/08/28 14:37:28;;;;;;;3.13;1.40;;;15.70;99.90;;;;;;6285738;28;20297;-68
2022/08/28 14:40:36;;;;;;;3.03;1.30;;;15.70;99.90;;;;;;6285727;28;20279;-68
2022/08/28 14:43:42;;;;;;;1.48;1.30;;;15.60;99.90;;;;;;6285600;28;20310;-68
2022/08/28 14:46:49;;;;;;;1.17;1.17;;;15.60;99.90;;;;;;6285512;28;20271;-68
2022/08/28 14:49:55;;;;;;;2.75;1.15;;;15.50;99.90;;;;;;6284988;28;20486;-68
2022/08/28 14:53:01;;;;;;;1.85;1.00;;;15.40;99.90;;;;;;6285202;28;20303;-68
2022/08/28 14:56:07;;;;;;;3.20;2.90;;;15.50;99.90;;;;;;6285713;28;20270;-68
2022/08/28 14:59:16;;;;;;;4.18;1.60;;;15.50;99.90;;;;;;6284999;28;20302;-68
2022/08/28 15:02:28;;;;;;;1.10;1.10;;;15.50;99.90;;;;;;6285310;28;20359;-68
2022/08/28 15:05:35;;;;;;;1.13;1.13;;;15.50;99.90;;;;;;6285128;28;20298;-69
2022/08/28 15:08:40;;;;;;;1.30;1.25;;;15.30;99.90;;;;;;6285391;28;20303;-69
2022/08/28 15:11:46;;;;;;;3.28;1.08;;;15.30;99.90;;;;;;6285257;28;20559;-69
2022/08/28 15:14:53;;;;;;;3.22;1.30;;;15.30;99.90;;;;;;6284663;28;20290;-69
2022/08/28 15:18:01;;;;;;;1.30;1.20;;;15.30;99.90;;;;;;6285031;28;20298;-68
2022/08/28 15:21:15;;;;;;;1.35;1.30;;;15.30;99.90;;;;;;6285525;28;20275;-68
2022/08/28 15:24:24;;;;;;;3.10;1.75;;;15.20;99.90;;;;;;6285249;28;20291;-69
2022/08/28 15:27:29;;;;;;;1.63;1.38;;;15.20;99.90;;;;;;6281064;28;20586;-68
2022/08/28 15:30:35;;;;;;;1.23;1.20;;;15.20;99.90;;;;;;6290537;28;20270;-68
2022/08/28 15:33:41;;;;;;;2.30;1.55;;;15.00;99.90;;;;;;6289457;28;20607;-68
2022/08/28 15:36:53;;;;;;;1.00;1.00;;;15.20;99.90;;;;;;6290543;28;20280;-68
2022/08/28 15:43:23;;;;;;;1.20;1.20;;;15.00;99.90;;;;;;6289404;28;20295;-69
2022/08/28 15:46:32;;;;;;;2.63;1.50;;;14.90;99.90;;;;;;6282809;28;20306;-68
2022/08/28 15:49:38;;;;;;;1.38;1.15;;;14.90;99.90;;;;;;6289551;28;20294;-69
2022/08/28 15:52:55;;;;;;;1.40;1.40;;;14.90;99.90;;;;;;6289433;28;20303;-68
2022/08/28 15:56:03;;;;;;;1.50;1.48;;;14.90;99.90;;;;;;6289966;28;20272;-69
2022/08/28 15:59:09;;;;;;;1.45;1.30;;;15.00;99.90;;;;;;6289496;28;20294;-68
2022/08/28 16:02:15;;;;;;;1.77;1.40;;;15.00;99.90;;;;;;6289024;28;20271;-68
2022/08/28 16:05:21;;;;;;;1.40;1.30;;;15.00;99.90;;;;;;6289809;28;20295;-68
2022/08/28 16:08:28;;;;;;;2.08;1.75;;;15.10;99.90;;;;;;6289622;28;20295;-68
2022/08/28 16:11:33;;;;;;;1.40;1.40;;;15.00;99.90;;;;;;6289574;28;20267;-68
2022/08/28 16:14:43;;;;;;;1.52;1.42;;;14.90;99.90;;;;;;6288929;28;20303;-68
2022/08/28 16:17:48;;;;;;;1.60;1.50;;;14.90;99.90;;;;;;6288855;28;20295;-68
2022/08/28 16:20:54;;;;;;;1.90;1.80;;;14.90;99.90;;;;;;6289651;28;20271;-68
2022/08/28 16:24:00;;;;;;;1.60;1.52;;;14.80;99.90;;;;;;6288687;28;20299;-68
2022/08/28 16:27:06;;;;;;;1.95;1.85;;;14.80;99.90;;;;;;6288508;28;20275;-68
2022/08/28 16:30:19;;;;;;;2.60;2.35;;;14.60;99.90;;;;;;6289040;28;20271;-68
2022/08/28 16:33:29;;;;;;;3.70;3.50;;;14.80;99.90;;;;;;6288031;28;20299;-68
2022/08/28 16:36:35;;;;;;;2.40;2.30;;;14.70;99.90;;;;;;6288292;28;20271;-68
2022/08/28 16:39:42;;;;;;;2.70;2.60;;;14.70;99.90;;;;;;6287528;28;20299;-68
2022/08/28 16:42:48;;;;;;;1.80;1.70;;;14.70;99.90;;;;;;6288185;28;20301;-68